Portada
METAR-TAF:

METAR-TAF

Aeroports :

Mecklenburg-Brunswick Regional Airport

South Hill, Virgínia, Estats Units d'Amèrica

latitud: 36-41-19N, longitud: 078-03-15W, altitud: 135 m

Observació

L'informe es va fer fa 24 minuts, a les 04:35 UTC
Vent calma
Temperatura 1°C
Humitat 93%
Pressió 1026 hPa
Visibilitat: 16.1 km
Cel clar

METAR: KAVC 210435Z AUTO 00000KT 10SM CLR 01/00 A3031 RMK AO2 T00131001

Hora: 23:59 (04:59 UTC)


TAF: manca

Observacions i pronòstics meteorològics de més de 4000 aeroports (METAR i TAF).

Les estacions disponibles són els punts grocs i vermells al mapa.

Posi el ratolí al punt desitjat per veure el nom de l'estació.

Feu clic per veure les observacions i els pronòstics meteorològics.

Per canviar el mapa: feu clic els botons verds amb una creu de color negre per apropar; al botó verd amb un guió per allunyar la imatge; o en les fletxes verdes per a mapes adjacents.


METAR-TAF: